New Sweden, Maine
Current Conditions -  °F | °C
As of 10:54 AM on Sunday 23 Nov 2014 (Local Time) from KCAR Reporting Station
Overcast Overcast  
Wind Chill: 36°   Ceiling: 4800
Heat Index: 39°   Visibility: 10mi
Dew Point: 29°   Wind: 5mph
Humidity: 67%   Direction: 270°W
Pressure: 29.97"   Gusts: NA
Location:  46.94°N, 68.12°W
Report Text: KCAR 231554Z AUTO 27004KT 10SM OVC048 04/M02 A2997 RMK AO2 SLP157 T00391017
Loading
Personal Weather Stations






























Interactive Weather Map New forecast layout! Learn more

10-Day Weather Forecast

Advertisements
Track Severe Weather on mobile